Aviation Digital Data Service (ADDS)

Output produced by METARs form (2232 UTC 26 April 2015)
found at http://aviationweather.gov/adds/metars/
 
KHKY 262004Z 2620/2718 03007KT P6SM OVC012 
     FM270000 04005KT P6SM SCT010 BKN040 
     FM270400 36003KT P6SM SCT070 
     FM271400 32007KT P6SM FEW250